createdAt,value
2022-09-07T00:02:20.667Z,95423.50
2022-09-07T00:05:04.303Z,95412.81
2022-09-07T00:07:48.861Z,95416.25
2022-09-07T00:10:31.986Z,95415.09
2022-09-07T00:13:15.140Z,95415.19
2022-09-07T00:15:58.760Z,95418.34
2022-09-07T00:18:45.727Z,95415.44
2022-09-07T00:21:29.828Z,95423.69
2022-09-07T00:24:14.350Z,95424.44
2022-09-07T00:26:57.885Z,95416.41
2022-09-07T00:29:41.065Z,95408.19
2022-09-07T00:32:25.506Z,95392.88
2022-09-07T00:35:09.253Z,95404.53
2022-09-07T00:37:52.497Z,95410.09
2022-09-07T00:40:37.259Z,95408.19
2022-09-07T00:43:31.694Z,95412.06
2022-09-07T00:46:16.832Z,95417.78
2022-09-07T00:49:04.347Z,95417.53
2022-09-07T00:51:51.852Z,95418.22
2022-09-07T00:54:39.532Z,95412.88
2022-09-07T00:57:24.524Z,95413.25
2022-09-07T01:00:12.200Z,95409.41
2022-09-07T01:02:58.308Z,95406.22
2022-09-07T01:05:44.816Z,95407.03
2022-09-07T01:08:28.651Z,95405.88
2022-09-07T01:11:12.611Z,95397.16
2022-09-07T01:13:58.273Z,95399.56
2022-09-07T01:16:53.867Z,95394.53
2022-09-07T01:20:25.035Z,95392.53
2022-09-07T01:23:31.372Z,95394.69
2022-09-07T01:26:44.832Z,95402.97
2022-09-07T01:29:37.033Z,95394.91
2022-09-07T01:32:32.018Z,95395.84
2022-09-07T01:35:23.629Z,95398.03
2022-09-07T01:38:18.693Z,95402.47
2022-09-07T01:41:05.706Z,95400.06
2022-09-07T01:43:55.337Z,95400.88
2022-09-07T01:46:45.554Z,95398.25
2022-09-07T01:49:35.765Z,95395.97
2022-09-07T01:52:29.031Z,95398.81
2022-09-07T01:55:18.258Z,95399.28
2022-09-07T01:58:08.745Z,95399.63
2022-09-07T02:00:56.937Z,95399.94
2022-09-07T02:03:45.883Z,95401.81
2022-09-07T02:06:37.329Z,95395.09
2022-09-07T02:09:27.854Z,95390.88
2022-09-07T02:12:16.129Z,95385.22
2022-09-07T02:15:03.847Z,95392.03
2022-09-07T02:17:51.455Z,95381.72
2022-09-07T02:20:41.415Z,95379.31
2022-09-07T02:23:29.589Z,95386.13
2022-09-07T02:26:19.166Z,95380.13
2022-09-07T02:29:02.290Z,95387.06
2022-09-07T02:31:45.393Z,95374.09
2022-09-07T02:34:28.638Z,95376.63
2022-09-07T02:37:16.329Z,95378.75
2022-09-07T02:40:00.432Z,95374.34
2022-09-07T02:42:45.067Z,95376.38
2022-09-07T02:45:45.952Z,95377.97
2022-09-07T02:48:37.450Z,95375.69
2022-09-07T02:51:27.816Z,95380.72
2022-09-07T02:54:39.089Z,95393.28
2022-09-07T02:57:33.456Z,95394.53
2022-09-07T03:00:20.904Z,95386.16
2022-09-07T03:03:17.738Z,95392.19
2022-09-07T03:06:03.113Z,95401.00
2022-09-07T03:08:50.235Z,95393.84
2022-09-07T03:11:37.753Z,95394.66
2022-09-07T03:14:23.007Z,95394.34
2022-09-07T03:17:06.242Z,95393.97
2022-09-07T03:19:49.350Z,95392.72
2022-09-07T03:22:34.951Z,95397.41
2022-09-07T03:25:19.171Z,95391.25
2022-09-07T03:28:04.018Z,95385.47
2022-09-07T03:30:47.639Z,95382.50
2022-09-07T03:33:30.865Z,95396.34
2022-09-07T03:36:14.065Z,95399.66
2022-09-07T03:38:58.769Z,95398.16
2022-09-07T03:41:41.984Z,95405.22
2022-09-07T03:44:26.461Z,95407.47
2022-09-07T03:47:09.569Z,95402.69
2022-09-07T03:49:52.606Z,95401.69
2022-09-07T03:52:35.919Z,95402.84
2022-09-07T03:55:19.085Z,95407.03
2022-09-07T03:58:02.171Z,95405.56
2022-09-07T04:00:46.674Z,95409.06
2022-09-07T04:03:30.274Z,95412.69
2022-09-07T04:06:14.031Z,95411.22
2022-09-07T04:08:57.448Z,95417.91
2022-09-07T04:11:40.569Z,95411.09
2022-09-07T04:14:23.722Z,95415.19
2022-09-07T04:17:08.284Z,95415.06
2022-09-07T04:19:52.464Z,95419.84
2022-09-07T04:22:35.581Z,95420.63
2022-09-07T04:25:18.972Z,95426.44
2022-09-07T04:28:02.093Z,95432.66
2022-09-07T04:30:45.505Z,95425.19
2022-09-07T04:33:32.157Z,95419.50
2022-09-07T04:36:17.484Z,95431.28
2022-09-07T04:39:01.980Z,95431.53
2022-09-07T04:41:45.086Z,95429.03
2022-09-07T04:44:28.162Z,95421.44
2022-09-07T04:47:11.336Z,95419.97
2022-09-07T04:49:55.990Z,95421.22
2022-09-07T04:52:39.128Z,95432.91
2022-09-07T04:55:22.326Z,95427.69
2022-09-07T04:58:05.493Z,95433.13
2022-09-07T05:00:48.602Z,95432.66
2022-09-07T05:03:33.095Z,95425.97
2022-09-07T05:06:19.512Z,95421.66
2022-09-07T05:09:02.718Z,95437.22
2022-09-07T05:11:45.823Z,95438.38
2022-09-07T05:14:29.111Z,95440.63
2022-09-07T05:17:12.243Z,95439.25
2022-09-07T05:19:55.365Z,95444.47
2022-09-07T05:22:41.218Z,95446.59
2022-09-07T05:25:24.494Z,95442.25
2022-09-07T05:28:07.645Z,95441.22
2022-09-07T05:37:01.339Z,95434.91
2022-09-07T05:39:45.886Z,95429.00
2022-09-07T05:42:29.035Z,95435.50
2022-09-07T05:45:12.876Z,95429.38
2022-09-07T05:47:56.501Z,95424.00
2022-09-07T05:50:39.560Z,95432.09
2022-09-07T05:53:23.094Z,95428.75
2022-09-07T05:56:08.979Z,95429.03
2022-09-07T05:58:52.092Z,95418.06
2022-09-07T06:01:36.290Z,95426.59
2022-09-07T06:04:19.707Z,95425.84
2022-09-07T06:07:21.110Z,95428.78
2022-09-07T06:13:10.643Z,95436.47
2022-09-07T06:15:53.740Z,95431.97
2022-09-07T06:18:38.674Z,95428.88
2022-09-07T06:21:23.406Z,95417.63
2022-09-07T06:24:07.572Z,95419.72
2022-09-07T06:26:50.684Z,95415.78
2022-09-07T06:29:35.811Z,95416.84
2022-09-07T06:35:22.035Z,95427.97
2022-09-07T06:38:05.217Z,95426.00
2022-09-07T06:40:48.795Z,95433.16
2022-09-07T06:43:32.223Z,95439.81
2022-09-07T06:49:20.822Z,95436.75
2022-09-07T06:52:04.519Z,95432.69
2022-09-07T06:55:02.869Z,95431.41
2022-09-07T06:57:46.128Z,95429.66
2022-09-07T07:00:29.290Z,95438.81
2022-09-07T07:03:13.979Z,95437.72
2022-09-07T07:05:58.459Z,95438.81
2022-09-07T07:08:42.166Z,95448.47
2022-09-07T07:11:25.484Z,95445.72
2022-09-07T07:14:08.674Z,95435.28
2022-09-07T07:16:51.746Z,95443.06
2022-09-07T07:19:36.487Z,95448.28
2022-09-07T07:22:45.030Z,95454.66
2022-09-07T07:25:22.747Z,95447.00
2022-09-07T07:31:12.934Z,95446.53
2022-09-07T07:33:56.388Z,95450.66
2022-09-07T07:36:40.851Z,95450.38
2022-09-07T07:42:27.496Z,95451.81
2022-09-07T07:48:15.168Z,95454.69
2022-09-07T07:51:01.412Z,95460.38
2022-09-07T07:53:48.919Z,95450.13
2022-09-07T07:56:31.975Z,95453.66
2022-09-07T07:59:15.864Z,95456.34
2022-09-07T08:02:04.422Z,95460.13
2022-09-07T08:04:48.127Z,95465.06
2022-09-07T08:07:31.236Z,95462.72
2022-09-07T08:10:15.806Z,95453.50
2022-09-07T08:12:58.964Z,95453.69
2022-09-07T08:15:44.668Z,95448.63
2022-09-07T08:18:28.036Z,95450.59
2022-09-07T08:21:13.360Z,95445.75
2022-09-07T08:24:00.213Z,95450.16
2022-09-07T08:26:44.863Z,95451.44
2022-09-07T08:29:31.242Z,95441.47
2022-09-07T08:32:16.724Z,95447.13
2022-09-07T08:35:00.302Z,95445.34
2022-09-07T08:37:43.311Z,95438.28
2022-09-07T08:40:26.306Z,95439.31
2022-09-07T08:43:19.233Z,95434.97
2022-09-07T08:46:11.847Z,95429.47
2022-09-07T08:48:56.540Z,95428.06
2022-09-07T08:51:46.494Z,95425.81
2022-09-07T08:54:29.660Z,95424.50
2022-09-07T08:57:23.436Z,95423.94
2022-09-07T09:00:14.466Z,95417.34
2022-09-07T09:06:09.460Z,95403.19
2022-09-07T09:09:12.139Z,95410.28
2022-09-07T09:12:06.968Z,95402.63
2022-09-07T09:15:02.463Z,95401.22
2022-09-07T09:17:53.563Z,95396.75
2022-09-07T09:20:43.142Z,95390.91
2022-09-07T09:23:28.214Z,95392.19
2022-09-07T09:26:17.647Z,95387.78
2022-09-07T09:29:13.721Z,95380.88
2022-09-07T09:31:57.114Z,95379.25
2022-09-07T09:34:41.793Z,95380.16
2022-09-07T09:37:34.781Z,95373.47
2022-09-07T09:40:24.195Z,95367.81
2022-09-07T09:43:19.224Z,95365.09
2022-09-07T09:46:18.233Z,95365.41
2022-09-07T09:49:04.568Z,95356.75
2022-09-07T09:55:03.307Z,95360.75
2022-09-07T10:04:21.523Z,95355.53
2022-09-07T10:07:28.536Z,95349.50
2022-09-07T10:10:17.614Z,95355.97
2022-09-07T10:13:01.061Z,95339.59
2022-09-07T10:15:44.272Z,95330.69
2022-09-07T10:18:34.789Z,95331.59
2022-09-07T10:21:27.742Z,95325.81
2022-09-07T10:24:17.276Z,95325.63
2022-09-07T10:27:00.824Z,95326.06
2022-09-07T10:29:43.849Z,95328.91
2022-09-07T10:32:43.896Z,95321.13
2022-09-07T10:35:30.420Z,95313.00
2022-09-07T10:38:30.971Z,95313.56
2022-09-07T10:41:18.338Z,95307.59
2022-09-07T10:44:03.172Z,95300.75
2022-09-07T10:46:57.034Z,95302.38
2022-09-07T10:50:21.831Z,95304.66
2022-09-07T10:52:56.768Z,95296.00
2022-09-07T10:55:43.266Z,95301.41
2022-09-07T11:01:53.813Z,95291.56
2022-09-07T11:04:49.305Z,95287.59
2022-09-07T11:07:51.948Z,95277.88
2022-09-07T11:10:42.210Z,95274.56
2022-09-07T11:13:31.477Z,95275.88
2022-09-07T11:19:41.041Z,95274.16
2022-09-07T11:22:33.352Z,95262.63
2022-09-07T11:25:36.634Z,95263.06
2022-09-07T11:28:26.411Z,95263.47
2022-09-07T11:31:20.891Z,95249.84
2022-09-07T11:34:26.510Z,95248.59
2022-09-07T11:37:15.187Z,95234.22
2022-09-07T11:40:05.070Z,95248.94
2022-09-07T11:42:53.688Z,95234.25
2022-09-07T11:45:43.334Z,95229.34
2022-09-07T11:48:34.803Z,95239.72
2022-09-07T11:51:26.680Z,95239.09
2022-09-07T11:54:40.585Z,95234.59
2022-09-07T11:57:40.761Z,95232.44
2022-09-07T12:00:29.660Z,95233.69
2022-09-07T12:03:32.771Z,95222.53
2022-09-07T12:06:42.322Z,95216.78
2022-09-07T12:09:41.888Z,95221.72
2022-09-07T12:12:46.537Z,95212.09
2022-09-07T12:15:37.964Z,95211.97
2022-09-07T12:18:41.183Z,95210.38
2022-09-07T12:21:40.585Z,95202.69
2022-09-07T12:24:42.272Z,95201.41
2022-09-07T12:27:39.865Z,95208.19
2022-09-07T12:30:55.409Z,95200.19
2022-09-07T12:33:41.628Z,95199.09
2022-09-07T12:36:50.811Z,95191.25
2022-09-07T12:39:35.143Z,95193.91
2022-09-07T12:42:32.730Z,95190.78
2022-09-07T12:45:50.594Z,95179.28
2022-09-07T12:48:46.791Z,95181.13
2022-09-07T12:54:59.696Z,95180.03
2022-09-07T12:58:02.911Z,95172.22
2022-09-07T13:00:58.125Z,95174.75
2022-09-07T13:04:20.474Z,95168.81
2022-09-07T13:07:36.862Z,95166.94
2022-09-07T13:10:30.561Z,95165.22
2022-09-07T13:14:02.778Z,95156.41
2022-09-07T13:16:31.374Z,95155.47
2022-09-07T13:19:37.475Z,95157.09
2022-09-07T13:22:53.589Z,95159.25
2022-09-07T13:25:50.220Z,95159.69
2022-09-07T13:28:52.050Z,95156.06
2022-09-07T13:31:47.018Z,95157.69
2022-09-07T13:35:05.020Z,95161.16
2022-09-07T13:37:53.737Z,95157.22
2022-09-07T13:40:40.499Z,95149.09
2022-09-07T13:43:25.341Z,95153.19
2022-09-07T13:46:18.055Z,95155.34
2022-09-07T13:49:07.811Z,95148.78
2022-09-07T13:51:59.711Z,95152.66
2022-09-07T13:54:58.651Z,95155.31
2022-09-07T13:57:51.428Z,95151.09
2022-09-07T14:00:35.679Z,95142.16
2022-09-07T14:03:18.887Z,95157.50
2022-09-07T14:06:35.628Z,95148.41
2022-09-07T14:09:22.951Z,95142.59
2022-09-07T14:12:15.688Z,95148.19
2022-09-07T14:15:10.305Z,95153.09
2022-09-07T14:18:04.770Z,95144.19
2022-09-07T14:20:50.648Z,95152.94
2022-09-07T14:23:35.747Z,95153.34
2022-09-07T14:26:23.141Z,95154.38
2022-09-07T14:29:06.147Z,95148.53
2022-09-07T14:31:49.474Z,95150.22
2022-09-07T14:34:35.934Z,95153.94
2022-09-07T14:37:21.855Z,95145.78
2022-09-07T14:40:06.394Z,95149.59
2022-09-07T14:42:52.304Z,95149.75
2022-09-07T14:45:37.525Z,95141.00
2022-09-07T14:48:31.478Z,95148.28
2022-09-07T14:51:34.829Z,95151.66
2022-09-07T14:54:22.139Z,95143.63
2022-09-07T14:57:33.636Z,95140.16
2022-09-07T15:00:30.928Z,95144.06
2022-09-07T15:03:28.847Z,95144.25
2022-09-07T15:07:00.965Z,95137.16
2022-09-07T15:09:29.699Z,95136.41
2022-09-07T15:12:32.973Z,95134.03
2022-09-07T15:15:26.705Z,95136.81
2022-09-07T15:18:43.536Z,95140.16
2022-09-07T15:21:29.135Z,95143.94
2022-09-07T15:24:12.805Z,95143.44
2022-09-07T15:27:03.625Z,95148.28
2022-09-07T15:29:47.228Z,95151.03
2022-09-07T15:32:31.734Z,95150.66
2022-09-07T15:35:15.943Z,95148.59
2022-09-07T15:38:04.473Z,95153.25
2022-09-07T15:41:18.098Z,95154.72
2022-09-07T15:43:54.112Z,95152.44
2022-09-07T15:46:37.835Z,95159.00
2022-09-07T15:49:22.427Z,95163.84
2022-09-07T15:52:06.296Z,95165.31
2022-09-07T15:54:50.055Z,95167.47
2022-09-07T15:57:51.176Z,95170.00
2022-09-07T16:00:35.888Z,95174.13
2022-09-07T16:03:19.097Z,95164.78
2022-09-07T16:06:09.014Z,95172.25
2022-09-07T16:08:52.916Z,95167.00
2022-09-07T16:11:36.054Z,95172.09
2022-09-07T16:14:21.882Z,95180.63
2022-09-07T16:20:09.090Z,95170.34
2022-09-07T16:25:59.968Z,95171.03
2022-09-07T16:28:45.095Z,95158.59
2022-09-07T16:31:31.162Z,95161.91
2022-09-07T16:34:21.136Z,95156.94
2022-09-07T16:37:04.321Z,95160.84
2022-09-07T16:39:49.758Z,95158.13
2022-09-07T16:42:37.406Z,95158.78
2022-09-07T16:48:24.330Z,95157.03
2022-09-07T16:51:08.126Z,95153.38
2022-09-07T16:53:52.690Z,95151.41
2022-09-07T16:56:39.714Z,95166.91
2022-09-07T16:59:26.878Z,95159.59
2022-09-07T17:02:18.549Z,95160.81
2022-09-07T17:05:01.709Z,95173.16
2022-09-07T17:07:44.776Z,95178.78
2022-09-07T17:10:28.987Z,95173.38
2022-09-07T17:13:13.579Z,95185.91
2022-09-07T17:16:02.948Z,95195.69
2022-09-07T17:21:50.164Z,95202.84
2022-09-07T17:24:33.474Z,95202.28
2022-09-07T17:27:16.484Z,95198.16
2022-09-07T17:30:00.904Z,95199.59
2022-09-07T17:32:44.078Z,95198.31
2022-09-07T17:35:27.135Z,95195.16
2022-09-07T17:41:18.521Z,95190.00
2022-09-07T17:44:01.775Z,95198.41
2022-09-07T17:46:46.588Z,95214.06
2022-09-07T17:52:46.222Z,95223.09
2022-09-07T17:55:32.777Z,95219.13
2022-09-07T17:58:16.171Z,95233.88
2022-09-07T18:01:03.668Z,95241.03
2022-09-07T18:03:52.458Z,95239.75
2022-09-07T18:06:36.192Z,95242.66
2022-09-07T18:09:20.907Z,95245.56
2022-09-07T18:12:05.837Z,95247.16
2022-09-07T18:14:49.856Z,95227.69
2022-09-07T18:17:33.057Z,95253.25
2022-09-07T18:20:18.987Z,95250.34
2022-09-07T18:23:02.461Z,95263.25
2022-09-07T18:25:46.442Z,95258.25
2022-09-07T18:31:35.666Z,95251.44
2022-09-07T18:34:19.321Z,95252.44
2022-09-07T18:37:03.893Z,95268.78
2022-09-07T18:39:48.865Z,95253.25
2022-09-07T18:42:34.385Z,95264.31
2022-09-07T18:45:29.053Z,95249.28
2022-09-07T18:48:17.310Z,95262.22
2022-09-07T18:51:00.860Z,95263.53
2022-09-07T18:53:45.506Z,95262.97
2022-09-07T18:56:28.708Z,95266.69
2022-09-07T18:59:15.332Z,95262.44
2022-09-07T19:02:03.879Z,95259.81
2022-09-07T19:07:53.774Z,95261.38
2022-09-07T19:10:39.136Z,95268.22
2022-09-07T19:13:22.456Z,95265.06
2022-09-07T19:16:07.206Z,95261.59
2022-09-07T19:19:00.524Z,95264.47
2022-09-07T19:21:44.490Z,95256.59
2022-09-07T19:24:30.493Z,95255.44
2022-09-07T19:27:15.046Z,95259.63
2022-09-07T19:29:58.522Z,95259.09
2022-09-07T19:32:41.776Z,95257.78
2022-09-07T19:35:25.102Z,95263.81
2022-09-07T19:38:08.230Z,95261.91
2022-09-07T19:40:57.585Z,95259.78
2022-09-07T19:43:42.742Z,95256.84
2022-09-07T19:46:26.082Z,95264.94
2022-09-07T19:49:12.165Z,95274.13
2022-09-07T19:51:55.258Z,95270.44
2022-09-07T19:54:38.470Z,95272.00
2022-09-07T19:57:21.632Z,95270.38
2022-09-07T20:00:07.778Z,95268.59
2022-09-07T20:02:52.347Z,95272.00
2022-09-07T20:05:38.986Z,95270.44
2022-09-07T20:08:22.693Z,95260.91
2022-09-07T20:11:08.431Z,95263.59
2022-09-07T20:13:52.323Z,95245.97
2022-09-07T20:16:39.397Z,95247.78
2022-09-07T20:19:22.603Z,95245.72
2022-09-07T20:22:08.044Z,95246.81
2022-09-07T20:24:51.282Z,95261.47
2022-09-07T20:27:35.897Z,95263.31
2022-09-07T20:30:19.250Z,95254.88
2022-09-07T20:33:04.020Z,95260.88
2022-09-07T20:35:47.994Z,95261.63
2022-09-07T20:38:31.233Z,95264.44
2022-09-07T20:41:17.168Z,95270.19
2022-09-07T20:44:01.979Z,95268.81
2022-09-07T20:46:45.377Z,95270.38
2022-09-07T20:49:30.072Z,95267.44
2022-09-07T20:52:13.240Z,95264.81
2022-09-07T20:54:56.314Z,95279.84
2022-09-07T20:57:39.413Z,95274.75
2022-09-07T21:00:22.547Z,95278.38
2022-09-07T21:03:05.661Z,95279.16
2022-09-07T21:05:50.599Z,95291.53
2022-09-07T21:08:37.194Z,95297.81
2022-09-07T21:11:22.485Z,95290.41
2022-09-07T21:14:07.617Z,95287.19
2022-09-07T21:16:50.742Z,95300.38
2022-09-07T21:19:33.895Z,95300.84
2022-09-07T21:22:19.322Z,95296.19
2022-09-07T21:25:02.954Z,95299.59
2022-09-07T21:27:47.448Z,95286.50
2022-09-07T21:30:31.555Z,95283.50
2022-09-07T21:33:16.139Z,95293.53
2022-09-07T21:36:05.010Z,95293.53
2022-09-07T21:38:50.130Z,95286.91
2022-09-07T21:41:33.274Z,95293.78
2022-09-07T21:44:17.418Z,95290.34
2022-09-07T21:47:01.397Z,95303.19
2022-09-07T21:49:44.592Z,95298.69
2022-09-07T21:52:27.817Z,95299.19
2022-09-07T21:55:12.487Z,95295.81
2022-09-07T21:57:55.579Z,95302.34
2022-09-07T22:00:39.627Z,95295.25
2022-09-07T22:03:24.137Z,95290.78
2022-09-07T22:06:07.277Z,95280.50
2022-09-07T22:08:50.610Z,95288.28
2022-09-07T22:11:35.373Z,95273.25
2022-09-07T22:14:18.561Z,95289.78
2022-09-07T22:17:02.526Z,95281.03
2022-09-07T22:19:45.910Z,95283.16
2022-09-07T22:22:29.243Z,95270.47
2022-09-07T22:25:12.515Z,95269.19
2022-09-07T22:27:57.217Z,95266.69
2022-09-07T22:30:40.437Z,95275.84
2022-09-07T22:33:23.891Z,95272.44
2022-09-07T22:36:11.929Z,95269.50
2022-09-07T22:38:56.812Z,95270.28
2022-09-07T22:41:40.799Z,95252.38
2022-09-07T22:44:26.904Z,95261.63
2022-09-07T22:47:11.037Z,95261.34
2022-09-07T22:49:54.064Z,95264.00
2022-09-07T22:52:37.261Z,95251.34
2022-09-07T22:55:20.304Z,95251.78
2022-09-07T22:58:03.433Z,95263.91
2022-09-07T23:00:48.291Z,95265.06
2022-09-07T23:03:33.046Z,95266.94
2022-09-07T23:06:21.807Z,95269.50
2022-09-07T23:09:07.416Z,95266.59
2022-09-07T23:11:50.575Z,95262.56
2022-09-07T23:14:33.830Z,95270.50
2022-09-07T23:17:18.352Z,95270.00
2022-09-07T23:20:01.502Z,95263.81
2022-09-07T23:22:45.187Z,95263.69
2022-09-07T23:25:30.031Z,95275.75
2022-09-07T23:28:13.949Z,95257.44
2022-09-07T23:30:57.332Z,95268.44
2022-09-07T23:33:41.879Z,95257.31
2022-09-07T23:36:25.521Z,95269.38
2022-09-07T23:39:11.136Z,95266.25
2022-09-07T23:41:54.281Z,95262.03
2022-09-07T23:44:37.465Z,95268.78
2022-09-07T23:47:20.561Z,95257.69
2022-09-07T23:50:05.630Z,95263.72
2022-09-07T23:52:48.748Z,95261.66
2022-09-07T23:55:31.956Z,95260.31
2022-09-07T23:58:15.153Z,95249.38
